Time;durP1;ratioP1;P1;durP2;ratioP2;P2;SDS_P1;SDS_P2;PMS_P1;PMS_P2;Temp;Humidity;BMP_temperature;BMP_pressure;BME280_temperature;BME280_humidity;BME280_pressure;Samples;Min_cycle;Max_cycle;Signal;HPM_P1;HPM_P2
2023/03/22 00:01:22;;;;;;;20.50;15.75;;;10.60;99.90;;;;;;5036698;28;20045;-72
2023/03/22 00:03:53;;;;;;;24.23;16.77;;;10.50;99.90;;;;;;5030715;28;20473;-75
2023/03/22 00:06:28;;;;;;;20.63;15.15;;;10.40;99.90;;;;;;5025096;28;20486;-72
2023/03/22 00:09:00;;;;;;;19.77;12.88;;;10.30;99.90;;;;;;5021217;28;20131;-72
2023/03/22 00:11:34;;;;;;;13.02;10.18;;;10.40;99.90;;;;;;5033395;28;20056;-70
2023/03/22 00:14:01;;;;;;;12.50;9.45;;;10.40;99.90;;;;;;5041349;28;20071;-72
2023/03/22 00:16:28;;;;;;;15.25;10.98;;;10.60;99.90;;;;;;5026336;28;20069;-71
2023/03/22 00:18:58;;;;;;;20.55;14.10;;;10.60;99.90;;;;;;5034185;28;20386;-69
2023/03/22 00:21:25;;;;;;;13.70;9.03;;;10.60;99.90;;;;;;5016620;28;20044;-70
2023/03/22 00:23:53;;;;;;;13.88;10.18;;;10.50;99.90;;;;;;5033803;28;20052;-71
2023/03/22 00:26:20;;;;;;;16.17;11.73;;;10.70;99.90;;;;;;5037139;28;20486;-71
2023/03/22 00:28:48;;;;;;;13.40;10.57;;;10.80;99.90;;;;;;5043281;28;20048;-71
2023/03/22 00:31:23;;;;;;;12.50;9.68;;;10.80;99.90;;;;;;5038834;28;20378;-71
2023/03/22 00:33:57;;;;;;;7.88;6.22;;;10.70;99.90;;;;;;5023288;28;20041;-70
2023/03/22 00:36:24;;;;;;;8.52;6.68;;;10.90;99.90;;;;;;5027161;28;20064;-72
2023/03/22 00:38:51;;;;;;;10.25;8.00;;;10.90;99.90;;;;;;5038276;28;20076;-71
2023/03/22 00:41:23;;;;;;;9.02;6.75;;;10.80;99.90;;;;;;5021227;28;20363;-71
2023/03/22 00:43:51;;;;;;;8.13;6.20;;;10.80;99.90;;;;;;5032413;28;20130;-73
2023/03/22 00:46:21;;;;;;;7.72;6.18;;;10.90;99.90;;;;;;5042135;28;20079;-73
2023/03/22 00:48:48;;;;;;;8.50;6.25;;;10.90;99.90;;;;;;5035852;28;20120;-71
2023/03/22 00:51:16;;;;;;;8.45;6.75;;;10.90;99.90;;;;;;5032927;28;20053;-72
2023/03/22 00:53:44;;;;;;;9.02;6.45;;;10.90;99.90;;;;;;5036087;28;20552;-69
2023/03/22 00:56:12;;;;;;;7.68;4.90;;;11.10;99.90;;;;;;5045758;28;20084;-71
2023/03/22 00:58:43;;;;;;;6.68;5.13;;;11.10;99.90;;;;;;5033911;28;20382;-71
2023/03/22 01:01:13;;;;;;;7.03;5.93;;;11.00;99.90;;;;;;5035348;28;20057;-72
2023/03/22 01:03:42;;;;;;;;;;;11.00;99.90;;;;;;5037426;28;20049;-73
2023/03/22 01:06:13;;;;;;;8.65;5.75;;;11.20;99.90;;;;;;5024970;28;20272;-71
2023/03/22 01:08:40;;;;;;;8.73;5.63;;;11.30;99.90;;;;;;5018747;28;20071;-71
2023/03/22 01:11:09;;;;;;;6.70;5.32;;;11.30;99.90;;;;;;5033099;28;20159;-71
2023/03/22 01:13:37;;;;;;;6.88;5.65;;;11.10;99.90;;;;;;5028861;28;20051;-73
2023/03/22 01:16:05;;;;;;;6.80;5.40;;;11.00;99.90;;;;;;5026682;28;20513;-71
2023/03/22 01:18:33;;;;;;;7.13;5.68;;;10.90;99.90;;;;;;5034908;28;20620;-72
2023/03/22 01:21:04;;;;;;;7.07;5.60;;;11.10;99.90;;;;;;5050828;28;20045;-71
2023/03/22 01:23:31;;;;;;;6.80;5.63;;;11.10;99.90;;;;;;5034782;28;20045;-72
2023/03/22 01:26:00;;;;;;;7.38;5.88;;;11.10;99.90;;;;;;5050806;28;20473;-73
2023/03/22 01:28:28;;;;;;;7.45;5.80;;;11.00;99.90;;;;;;5031142;28;20145;-72
2023/03/22 01:31:00;;;;;;;7.80;6.07;;;11.00;99.90;;;;;;5032684;28;20057;-73
2023/03/22 01:33:28;;;;;;;7.20;5.55;;;10.90;99.90;;;;;;5050966;28;20409;-71
2023/03/22 01:35:55;;;;;;;7.18;6.18;;;11.00;99.90;;;;;;5022591;28;20040;-70
2023/03/22 01:38:22;;;;;;;7.15;6.20;;;11.00;99.90;;;;;;5067273;28;20125;-73
2023/03/22 01:40:50;;;;;;;7.40;6.07;;;10.90;99.90;;;;;;5033409;28;20056;-71
2023/03/22 01:43:18;;;;;;;6.18;4.80;;;10.90;99.90;;;;;;5032308;28;20220;-71
2023/03/22 01:45:50;;;;;;;6.63;5.75;;;10.90;99.90;;;;;;5028099;28;20072;-73
2023/03/22 01:48:44;;;;;;;10.30;7.57;;;11.10;99.90;;;;;;5027353;28;20455;-72
2023/03/22 01:51:23;;;;;;;11.45;8.65;;;11.10;99.90;;;;;;5041519;28;20072;-71
2023/03/22 01:54:04;;;;;;;9.85;7.85;;;11.10;99.90;;;;;;5019084;28;20140;-73
2023/03/22 01:56:35;;;;;;;12.25;8.63;;;11.10;99.90;;;;;;5031757;28;20049;-70
2023/03/22 01:59:05;;;;;;;13.05;8.63;;;11.10;99.90;;;;;;5028629;28;20048;-71
2023/03/22 02:01:34;;;;;;;13.43;9.90;;;11.10;99.90;;;;;;5020969;28;20100;-72
2023/03/22 02:04:14;;;;;;;15.02;10.70;;;11.00;99.90;;;;;;5030819;28;20166;-71
2023/03/22 02:06:46;;;;;;;14.30;10.52;;;11.10;99.90;;;;;;5015038;28;20037;-72
2023/03/22 02:09:17;;;;;;;16.08;11.52;;;11.10;99.90;;;;;;5026083;28;20397;-70
2023/03/22 02:11:51;;;;;;;16.48;11.77;;;11.10;99.90;;;;;;5014557;28;20052;-73
2023/03/22 02:14:41;;;;;;;18.17;11.93;;;11.00;99.90;;;;;;5014960;28;20183;-72
2023/03/22 02:17:24;;;;;;;16.98;12.63;;;11.00;99.90;;;;;;5038665;28;20508;-70
2023/03/22 02:20:18;;;;;;;18.33;12.30;;;11.00;99.90;;;;;;5017038;28;20049;-72
2023/03/22 02:23:02;;;;;;;19.02;13.43;;;11.00;99.90;;;;;;5033442;28;20050;-74
2023/03/22 02:25:48;;;;;;;22.25;13.93;;;10.80;99.90;;;;;;5014201;28;20149;-72
2023/03/22 02:28:55;;;;;;;17.52;13.18;;;10.90;99.90;;;;;;5032240;28;20044;-73
2023/03/22 02:32:00;;;;;;;16.05;12.27;;;10.90;99.90;;;;;;5020768;28;20049;-70
2023/03/22 02:35:02;;;;;;;15.43;10.73;;;10.70;99.90;;;;;;5033351;28;20041;-71
2023/03/22 02:37:37;;;;;;;13.60;9.35;;;10.50;99.90;;;;;;5034096;28;20060;-71
2023/03/22 02:40:13;;;;;;;12.60;9.98;;;10.20;99.90;;;;;;5039921;28;20389;-70
2023/03/22 02:42:49;;;;;;;12.73;9.05;;;10.20;99.90;;;;;;5014352;28;20397;-71
2023/03/22 02:45:41;;;;;;;11.65;8.98;;;10.10;99.90;;;;;;5029578;28;20060;-71
2023/03/22 02:48:12;;;;;;;9.48;7.85;;;10.10;99.90;;;;;;5030971;28;20539;-70
2023/03/22 02:50:47;;;;;;;9.23;7.90;;;10.20;99.90;;;;;;5043712;28;20385;-72
2023/03/22 02:53:29;;;;;;;9.63;7.63;;;10.20;99.90;;;;;;5042674;28;20053;-72
2023/03/22 02:56:12;;;;;;;11.50;8.45;;;10.40;99.90;;;;;;5013368;28;20042;-71
2023/03/22 02:58:46;;;;;;;8.80;7.00;;;10.50;99.90;;;;;;5042819;28;20049;-71
2023/03/22 03:01:25;;;;;;;9.02;7.40;;;10.60;99.90;;;;;;5022279;28;20041;-72
2023/03/22 03:03:58;;;;;;;8.83;6.90;;;10.80;99.90;;;;;;5029183;28;20041;-71
2023/03/22 03:06:34;;;;;;;6.70;5.45;;;10.90;99.90;;;;;;5026028;28;20765;-73
2023/03/22 03:09:04;;;;;;;5.60;4.43;;;10.80;99.90;;;;;;5013909;28;20045;-71
2023/03/22 03:11:35;;;;;;;5.97;4.75;;;10.60;99.90;;;;;;5012970;28;20056;-73
2023/03/22 03:14:05;;;;;;;5.78;4.88;;;10.60;99.90;;;;;;5017482;28;20037;-71
2023/03/22 03:16:38;;;;;;;5.22;4.40;;;10.50;99.90;;;;;;5034803;28;20114;-71
2023/03/22 03:19:31;;;;;;;6.10;4.68;;;10.40;99.90;;;;;;5040290;28;20067;-73
2023/03/22 03:22:08;;;;;;;;;;;10.40;99.90;;;;;;5037544;28;20048;-73
2023/03/22 03:24:43;;;;;;;9.60;6.97;;;10.30;99.90;;;;;;5048685;28;19927;-72
2023/03/22 03:27:26;;;;;;;11.88;8.02;;;10.40;99.90;;;;;;5037132;28;20052;-70
2023/03/22 03:30:19;;;;;;;9.85;7.22;;;10.50;99.90;;;;;;5020410;28;20087;-71
2023/03/22 03:32:58;;;;;;;10.50;8.40;;;10.60;99.90;;;;;;5035706;28;20489;-70
2023/03/22 03:35:36;;;;;;;11.77;8.75;;;10.70;99.90;;;;;;5035686;28;20050;-70
2023/03/22 03:38:20;;;;;;;13.02;8.18;;;10.80;99.90;;;;;;5029434;28;20048;-69
2023/03/22 03:40:59;;;;;;;12.35;8.15;;;10.90;99.90;;;;;;5036652;28;20045;-72
2023/03/22 03:43:26;;;;;;;10.48;7.07;;;10.90;99.90;;;;;;5036360;28;20077;-70
2023/03/22 03:45:56;;;;;;;7.25;5.82;;;10.90;99.90;;;;;;5039351;28;20497;-73
2023/03/22 03:48:28;;;;;;;4.82;4.20;;;10.90;99.90;;;;;;5025425;28;20622;-72
2023/03/22 03:51:00;;;;;;;7.20;4.97;;;10.90;99.90;;;;;;5036904;28;20045;-70
2023/03/22 03:53:28;;;;;;;6.72;5.63;;;10.90;99.90;;;;;;5019578;28;20049;-74
2023/03/22 03:55:56;;;;;;;7.32;5.60;;;10.70;99.90;;;;;;5031442;28;20167;-69
2023/03/22 03:58:23;;;;;;;7.90;6.30;;;10.60;99.90;;;;;;5019728;28;20092;-73
2023/03/22 04:00:51;;;;;;;8.02;6.22;;;10.50;99.90;;;;;;5029741;28;20102;-70
2023/03/22 04:03:21;;;;;;;8.50;6.93;;;10.50;99.90;;;;;;5035312;28;20069;-73
2023/03/22 04:05:49;;;;;;;8.32;6.60;;;10.60;99.90;;;;;;5019762;28;20053;-73
2023/03/22 04:08:16;;;;;;;9.18;7.30;;;10.70;99.90;;;;;;5049853;28;20049;-72
2023/03/22 04:10:49;;;;;;;9.52;6.97;;;10.80;99.90;;;;;;5037315;28;20050;-72
2023/03/22 04:13:20;;;;;;;9.38;7.65;;;10.80;99.90;;;;;;5055323;28;20048;-73
2023/03/22 04:15:52;;;;;;;9.30;7.80;;;10.90;99.90;;;;;;5054075;28;20136;-70
2023/03/22 04:18:20;;;;;;;9.20;7.60;;;10.90;99.90;;;;;;5036928;28;20060;-70
2023/03/22 04:20:48;;;;;;;11.43;7.90;;;10.90;99.90;;;;;;5037263;23;20060;-75
2023/03/22 04:23:15;;;;;;;10.45;7.93;;;10.90;99.90;;;;;;5037254;28;20423;-73
2023/03/22 04:25:49;;;;;;;10.23;8.32;;;10.90;99.90;;;;;;5033902;28;20037;-72
2023/03/22 04:28:19;;;;;;;11.32;8.77;;;10.80;99.90;;;;;;5027134;28;20167;-70
2023/03/22 04:30:50;;;;;;;12.15;8.35;;;10.90;99.90;;;;;;5018837;28;20047;-73
2023/03/22 04:33:38;;;;;;;12.00;8.75;;;10.80;99.90;;;;;;5051002;28;20025;-72
2023/03/22 04:36:09;;;;;;;12.90;8.88;;;10.80;99.90;;;;;;5015466;28;20393;-74
2023/03/22 04:38:38;;;;;;;11.82;8.63;;;10.70;99.90;;;;;;5012641;28;20090;-71
2023/03/22 04:41:05;;;;;;;13.52;9.88;;;10.70;99.90;;;;;;5033033;28;20045;-74
2023/03/22 04:43:34;;;;;;;16.55;10.60;;;10.50;99.90;;;;;;5012831;28;20041;-73
2023/03/22 04:46:01;;;;;;;15.18;9.85;;;10.60;99.90;;;;;;5033530;28;20502;-71
2023/03/22 04:48:46;;;;;;;13.30;9.70;;;10.70;99.90;;;;;;5031087;28;20018;-72
2023/03/22 04:51:14;;;;;;;13.00;10.10;;;10.80;99.90;;;;;;5010106;28;20396;-72
2023/03/22 04:53:50;;;;;;;16.85;9.50;;;10.80;99.90;;;;;;5035371;28;20039;-71
2023/03/22 04:56:17;;;;;;;12.90;10.02;;;10.80;99.90;;;;;;5031596;28;20524;-73
2023/03/22 04:58:45;;;;;;;13.70;10.73;;;10.90;99.90;;;;;;5017081;28;20044;-71
2023/03/22 05:01:16;;;;;;;16.40;11.70;;;10.80;99.90;;;;;;5026388;28;20069;-70
2023/03/22 05:03:46;;;;;;;16.20;10.65;;;10.80;99.90;;;;;;5012981;28;20041;-73
2023/03/22 05:06:16;;;;;;;16.73;11.35;;;10.60;99.90;;;;;;5032819;28;20426;-72
2023/03/22 05:08:43;;;;;;;15.60;10.00;;;10.50;99.90;;;;;;5015826;28;20045;-71
2023/03/22 05:11:15;;;;;;;14.65;11.13;;;10.40;99.90;;;;;;5042910;28;20300;-73
2023/03/22 05:13:43;;;;;;;11.73;9.43;;;10.30;99.90;;;;;;5046409;28;20208;-73
2023/03/22 05:16:12;;;;;;;11.98;9.23;;;10.30;99.90;;;;;;5016566;28;20049;-71
2023/03/22 05:18:41;;;;;;;11.80;9.43;;;10.30;99.90;;;;;;5050513;28;20140;-70
2023/03/22 05:21:56;;;;;;;10.50;8.23;;;10.30;99.90;;;;;;5021295;28;20049;-76
2023/03/22 05:24:24;;;;;;;10.50;7.93;;;10.20;99.90;;;;;;5031398;28;20045;-73
2023/03/22 05:26:52;;;;;;;11.93;9.05;;;10.30;99.90;;;;;;5031241;28;20048;-70
2023/03/22 05:29:26;;;;;;;13.77;9.27;;;10.30;99.90;;;;;;5017966;28;20460;-73
2023/03/22 05:31:54;;;;;;;11.73;8.70;;;10.20;99.90;;;;;;5035440;28;20431;-72
2023/03/22 05:34:21;;;;;;;11.38;9.27;;;10.20;99.90;;;;;;5015036;28;20049;-75
2023/03/22 05:36:50;;;;;;;9.73;8.25;;;10.30;99.90;;;;;;5043407;28;20041;-75
2023/03/22 05:39:18;;;;;;;12.35;8.82;;;10.40;99.90;;;;;;5029206;28;20049;-71
2023/03/22 05:41:45;;;;;;;11.30;8.50;;;10.60;99.90;;;;;;5026663;28;20049;-74
2023/03/22 05:44:13;;;;;;;11.00;9.07;;;10.50;99.90;;;;;;5051754;28;20033;-77
2023/03/22 05:47:00;;;;;;;12.27;9.02;;;10.50;99.90;;;;;;5046961;28;20024;-72
2023/03/22 05:49:27;;;;;;;12.43;8.60;;;10.60;99.90;;;;;;5025507;28;20064;-74
2023/03/22 05:51:54;;;;;;;10.88;8.93;;;10.70;99.90;;;;;;5034557;28;20296;-74
2023/03/22 05:54:28;;;;;;;11.43;8.80;;;10.90;99.90;;;;;;5037254;28;20400;-71
2023/03/22 05:56:55;;;;;;;11.27;8.90;;;10.90;99.90;;;;;;5030925;28;20092;-75
2023/03/22 05:59:22;;;;;;;11.05;9.15;;;11.00;99.90;;;;;;5039042;28;20108;-72
2023/03/22 06:01:52;;;;;;;12.88;8.93;;;11.10;99.90;;;;;;5021351;28;20540;-73
2023/03/22 06:04:21;;;;;;;11.13;8.77;;;11.20;99.90;;;;;;5030360;28;20549;-72
2023/03/22 06:06:49;;;;;;;13.55;9.25;;;11.20;99.90;;;;;;5028879;28;20044;-72
2023/03/22 06:09:28;;;;;;;11.35;9.18;;;11.20;99.90;;;;;;5031598;28;20041;-72
2023/03/22 06:12:17;;;;;;;13.68;9.98;;;11.40;99.90;;;;;;5018079;28;20039;-75
2023/03/22 06:14:47;;;;;;;11.93;9.23;;;11.30;99.90;;;;;;5023626;28;20088;-72
2023/03/22 06:17:15;;;;;;;10.52;8.45;;;11.40;99.90;;;;;;5032506;28;20055;-71
2023/03/22 06:19:42;;;;;;;26.67;17.35;;;11.40;99.90;;;;;;5030315;28;20050;-74
2023/03/22 06:22:10;;;;;;;149.13;89.15;;;11.60;99.90;;;;;;5044818;28;20056;-71
2023/03/22 06:24:39;;;;;;;218.15;130.65;;;11.90;99.90;;;;;;5050392;28;20052;-73
2023/03/22 06:27:07;;;;;;;248.27;144.85;;;12.00;99.90;;;;;;5056538;28;20404;-70
2023/03/22 06:29:34;;;;;;;257.88;156.48;;;12.00;99.90;;;;;;5051131;28;20119;-72
2023/03/22 06:32:02;;;;;;;75.63;49.33;;;12.00;99.90;;;;;;5049688;28;20040;-75
2023/03/22 06:34:30;;;;;;;20.70;14.48;;;11.80;99.90;;;;;;5026259;28;20049;-74
2023/03/22 06:36:57;;;;;;;14.55;10.13;;;11.70;99.90;;;;;;5024904;28;20052;-72
2023/03/22 06:39:25;;;;;;;11.23;9.35;;;11.60;99.90;;;;;;5033304;28;20045;-72
2023/03/22 06:41:55;;;;;;;;;;;11.60;99.90;;;;;;5051770;28;20048;-72
2023/03/22 06:44:23;;;;;;;10.45;8.43;;;11.70;99.90;;;;;;5063877;28;20266;-72
2023/03/22 06:46:50;;;;;;;13.43;9.23;;;11.80;99.90;;;;;;5018280;28;20067;-69
2023/03/22 06:49:18;;;;;;;12.20;9.00;;;11.80;99.90;;;;;;5068547;28;20044;-70
2023/03/22 06:51:46;;;;;;;13.40;9.55;;;12.00;99.90;;;;;;5058760;28;20040;-72
2023/03/22 06:54:18;;;;;;;13.20;9.98;;;12.10;99.90;;;;;;5056200;28;20056;-70
2023/03/22 06:56:46;;;;;;;11.68;9.20;;;12.10;99.90;;;;;;5021108;23;20045;-73
2023/03/22 06:59:13;;;;;;;13.57;9.52;;;12.10;99.90;;;;;;5023489;28;20077;-72
2023/03/22 07:01:40;;;;;;;13.45;9.98;;;12.10;99.90;;;;;;5022571;28;20478;-72
2023/03/22 07:04:08;;;;;;;16.05;11.10;;;12.20;99.90;;;;;;5011842;28;20049;-70
2023/03/22 07:06:35;;;;;;;86.28;51.33;;;12.40;99.90;;;;;;5026417;28;20460;-73
2023/03/22 07:09:02;;;;;;;55.30;34.55;;;12.60;99.90;;;;;;5010176;28;20069;-73
2023/03/22 07:11:32;;;;;;;33.60;21.73;;;12.60;99.90;;;;;;5010752;28;20038;-72
2023/03/22 07:14:02;;;;;;;16.05;12.93;;;12.60;99.90;;;;;;5002496;28;20060;-73
2023/03/22 07:16:30;;;;;;;18.15;11.68;;;12.50;99.90;;;;;;5015208;28;20042;-72
2023/03/22 07:18:57;;;;;;;15.80;11.75;;;12.40;99.90;;;;;;5011264;28;20042;-73
2023/03/22 07:21:24;;;;;;;17.13;11.50;;;12.40;99.90;;;;;;5023408;28;20461;-75
2023/03/22 07:23:52;;;;;;;16.80;12.20;;;12.30;99.90;;;;;;5019242;28;20493;-72
2023/03/22 07:26:19;;;;;;;16.55;11.73;;;12.30;99.90;;;;;;5012959;28;20068;-73
2023/03/22 07:28:46;;;;;;;13.80;10.70;;;12.40;99.90;;;;;;5010855;28;20042;-73
2023/03/22 07:31:14;;;;;;;15.02;12.38;;;12.60;99.90;;;;;;5009141;28;20052;-73
2023/03/22 07:33:41;;;;;;;18.15;12.68;;;12.70;99.90;;;;;;5021370;28;20041;-73
2023/03/22 07:36:09;;;;;;;14.57;11.95;;;12.70;99.90;;;;;;5013030;28;20038;-73
2023/03/22 07:38:36;;;;;;;17.23;12.82;;;12.70;99.90;;;;;;5011097;28;20038;-72
2023/03/22 07:41:04;;;;;;;21.42;12.88;;;12.80;99.90;;;;;;5010871;28;20445;-71
2023/03/22 07:43:31;;;;;;;20.70;14.05;;;12.90;99.90;;;;;;5010703;28;20065;-74
2023/03/22 07:46:16;;;;;;;20.45;14.90;;;12.90;99.90;;;;;;5010642;28;20041;-72
2023/03/22 07:48:44;;;;;;;21.35;15.15;;;12.90;99.90;;;;;;5010590;28;20409;-73
2023/03/22 07:51:11;;;;;;;24.70;15.27;;;12.90;99.90;;;;;;5009744;28;20398;-74
2023/03/22 07:53:38;;;;;;;20.15;14.40;;;13.00;99.90;;;;;;5026929;28;20044;-73
2023/03/22 07:56:06;;;;;;;18.13;14.38;;;13.00;99.90;;;;;;5032139;28;20049;-73
2023/03/22 07:58:33;;;;;;;21.02;13.80;;;13.10;99.90;;;;;;5016817;28;20046;-72
2023/03/22 08:01:07;;;;;;;18.52;14.15;;;13.20;99.90;;;;;;5012407;28;20384;-73
2023/03/22 08:03:35;;;;;;;17.52;13.48;;;13.20;99.90;;;;;;5014075;28;20040;-73
2023/03/22 08:06:06;;;;;;;20.40;14.20;;;13.00;99.90;;;;;;5013882;28;20311;-70
2023/03/22 08:08:35;;;;;;;17.92;13.40;;;13.10;99.90;;;;;;5013042;28;20437;-74
2023/03/22 08:11:07;;;;;;;18.88;13.07;;;13.20;99.90;;;;;;5023185;28;20049;-73
2023/03/22 08:13:34;;;;;;;18.58;12.77;;;13.50;99.90;;;;;;5016079;28;20034;-73
2023/03/22 08:16:02;;;;;;;20.08;13.15;;;13.60;99.90;;;;;;5025204;28;20401;-72
2023/03/22 08:18:29;;;;;;;16.77;12.90;;;13.70;99.90;;;;;;4997794;28;20121;-73
2023/03/22 08:20:58;;;;;;;18.45;13.15;;;13.80;99.90;;;;;;5024630;28;20790;-73
2023/03/22 08:23:27;;;;;;;17.00;12.60;;;13.70;99.90;;;;;;5035919;28;20055;-72
2023/03/22 08:26:08;;;;;;;16.92;12.35;;;13.60;99.90;;;;;;5018677;28;20041;-74
2023/03/22 08:28:36;;;;;;;17.52;12.30;;;13.60;99.90;;;;;;5014471;28;20393;-72
2023/03/22 08:31:12;;;;;;;15.55;11.35;;;13.70;99.90;;;;;;5030128;28;20049;-74
2023/03/22 08:33:42;;;;;;;16.52;12.10;;;13.80;99.90;;;;;;5022433;28;20147;-70
2023/03/22 08:36:15;;;;;;;16.10;11.68;;;13.90;99.90;;;;;;5013804;28;20041;-73
2023/03/22 08:38:44;;;;;;;17.55;11.55;;;13.90;99.90;;;;;;5013382;28;20046;-72
2023/03/22 08:41:12;;;;;;;19.42;12.32;;;13.90;99.90;;;;;;5029745;28;20054;-73
2023/03/22 08:43:39;;;;;;;18.17;11.25;;;14.00;99.90;;;;;;5014793;28;20034;-75
2023/03/22 08:46:07;;;;;;;17.27;11.60;;;14.10;99.90;;;;;;5025298;28;20471;-73
2023/03/22 08:48:36;;;;;;;14.98;11.05;;;14.30;99.90;;;;;;5012930;28;20367;-72
2023/03/22 08:51:05;;;;;;;18.75;12.82;;;14.30;99.90;;;;;;5018247;28;20406;-73
2023/03/22 08:53:32;;;;;;;16.55;12.20;;;14.40;99.90;;;;;;5015538;28;20052;-73
2023/03/22 08:56:01;;;;;;;19.35;12.32;;;14.30;99.90;;;;;;4998611;28;20057;-73
2023/03/22 08:58:28;;;;;;;16.58;12.35;;;14.30;99.90;;;;;;5013420;28;20052;-72
2023/03/22 09:00:55;;;;;;;18.35;11.45;;;14.20;99.90;;;;;;5013312;28;20042;-74
2023/03/22 09:03:25;;;;;;;16.45;11.25;;;14.20;99.90;;;;;;5026381;28;20041;-73
2023/03/22 09:05:53;;;;;;;14.18;10.68;;;14.20;99.90;;;;;;5020709;28;20048;-72
2023/03/22 09:08:20;;;;;;;14.35;10.85;;;14.20;99.90;;;;;;5018280;28;20041;-73
2023/03/22 09:10:50;;;;;;;16.85;10.60;;;14.30;99.90;;;;;;5019597;28;20058;-72
2023/03/22 09:13:19;;;;;;;15.10;11.43;;;14.30;99.90;;;;;;5016481;28;20122;-74
2023/03/22 09:15:47;;;;;;;15.68;11.32;;;14.50;99.90;;;;;;5026878;28;20509;-73
2023/03/22 09:18:15;;;;;;;15.65;11.63;;;14.50;99.90;;;;;;5029358;28;20494;-73
2023/03/22 09:20:44;;;;;;;14.52;10.98;;;14.50;99.90;;;;;;5019010;28;20045;-74
2023/03/22 09:23:14;;;;;;;17.33;11.15;;;14.50;99.90;;;;;;5027188;28;20419;-72
2023/03/22 09:25:45;;;;;;;15.63;10.90;;;14.60;99.90;;;;;;5036372;28;20417;-72
2023/03/22 09:28:14;;;;;;;15.30;11.48;;;14.60;99.90;;;;;;5016695;28;20099;-73
2023/03/22 09:30:42;;;;;;;20.58;11.70;;;14.50;99.90;;;;;;5018700;28;20172;-72
2023/03/22 09:33:10;;;;;;;14.93;10.75;;;14.50;99.90;;;;;;5017693;28;20045;-72
2023/03/22 09:35:42;;;;;;;16.55;10.52;;;14.50;99.90;;;;;;5018409;28;20041;-74
2023/03/22 09:38:11;;;;;;;15.20;10.77;;;14.60;99.90;;;;;;5037305;28;20049;-73
2023/03/22 09:40:50;;;;;;;12.77;9.75;;;14.70;99.90;;;;;;5030444;28;20046;-73
2023/03/22 09:43:18;;;;;;;12.00;9.73;;;14.70;99.90;;;;;;5021503;28;20057;-73
2023/03/22 09:45:48;;;;;;;16.15;11.18;;;14.70;99.90;;;;;;5009448;28;20037;-74
2023/03/22 09:48:25;;;;;;;14.45;11.05;;;14.70;99.90;;;;;;5016962;28;20053;-73
2023/03/22 09:50:54;;;;;;;17.17;10.55;;;14.70;99.90;;;;;;5035561;28;20103;-73
2023/03/22 09:53:25;;;;;;;12.35;9.55;;;14.70;99.90;;;;;;5015891;28;20069;-72
2023/03/22 09:56:17;;;;;;;16.20;10.48;;;14.70;99.90;;;;;;5032102;28;20049;-73
2023/03/22 09:58:47;;;;;;;14.15;9.65;;;14.60;99.90;;;;;;5031655;28;20497;-73
2023/03/22 10:01:35;;;;;;;15.80;9.85;;;14.60;99.90;;;;;;5032185;28;20478;-73
2023/03/22 10:04:25;;;;;;;15.25;9.90;;;14.60;99.90;;;;;;5032767;28;20057;-73
2023/03/22 10:07:41;;;;;;;13.13;9.13;;;14.70;99.90;;;;;;5036115;28;20041;-73
2023/03/22 10:10:18;;;;;;;14.40;10.18;;;14.70;99.90;;;;;;5031370;28;20038;-73
2023/03/22 10:13:15;;;;;;;18.25;10.57;;;14.80;99.90;;;;;;5031978;28;20306;-73
2023/03/22 10:15:45;;;;;;;15.43;9.25;;;14.90;99.90;;;;;;5023054;28;20048;-72
2023/03/22 10:18:24;;;;;;;14.57;9.27;;;15.10;99.90;;;;;;5034928;28;20095;-72
2023/03/22 10:21:24;;;;;;;13.38;9.60;;;15.00;99.90;;;;;;5043377;28;20331;-73
2023/03/22 10:24:12;;;;;;;18.02;10.52;;;15.00;99.90;;;;;;5018903;28;20525;-73
2023/03/22 10:26:43;;;;;;;18.15;10.88;;;14.90;99.90;;;;;;5031209;28;20037;-72
2023/03/22 10:29:33;;;;;;;13.25;10.00;;;14.80;99.90;;;;;;5031218;28;20389;-74
2023/03/22 10:32:29;;;;;;;14.82;10.35;;;14.80;99.90;;;;;;5031574;28;20046;-73
2023/03/22 10:34:57;;;;;;;14.65;11.02;;;14.80;99.90;;;;;;5030058;28;20045;-74
2023/03/22 10:37:30;;;;;;;14.85;10.05;;;14.80;99.90;;;;;;5032536;28;20440;-73
2023/03/22 10:40:06;;;;;;;14.65;9.00;;;14.80;99.90;;;;;;5040621;28;20048;-73
2023/03/22 10:42:36;;;;;;;12.57;8.55;;;14.90;99.90;;;;;;5044844;28;20052;-72
2023/03/22 10:45:13;;;;;;;13.18;9.23;;;15.00;99.90;;;;;;5030949;28;20194;-73
2023/03/22 10:47:56;;;;;;;12.57;8.55;;;15.00;99.90;;;;;;5005176;28;20437;-72
2023/03/22 10:50:38;;;;;;;11.00;8.68;;;15.00;99.90;;;;;;5016077;28;20045;-73
2023/03/22 10:53:23;;;;;;;13.15;9.85;;;15.00;99.90;;;;;;5031221;28;20042;-72
2023/03/22 10:55:50;;;;;;;18.73;10.57;;;15.00;99.90;;;;;;5033697;28;20053;-73
2023/03/22 10:58:21;;;;;;;13.35;9.75;;;15.10;99.90;;;;;;5030780;28;20412;-71
2023/03/22 11:00:53;;;;;;;12.50;8.38;;;15.40;99.90;;;;;;5014741;28;20037;-73
2023/03/22 11:03:39;;;;;;;16.17;9.52;;;15.60;99.90;;;;;;5044105;28;20047;-74
2023/03/22 11:06:14;;;;;;;14.75;10.00;;;15.80;99.90;;;;;;5040292;28;20075;-72
2023/03/22 11:08:45;;;;;;;13.88;7.85;;;15.80;99.90;;;;;;5028942;28;20045;-74
2023/03/22 11:11:22;;;;;;;11.02;8.00;;;15.60;99.90;;;;;;5042473;28;20053;-74
2023/03/22 11:13:52;;;;;;;12.57;8.20;;;15.50;99.90;;;;;;5013301;28;20466;-73
2023/03/22 11:16:24;;;;;;;11.60;8.30;;;15.60;99.90;;;;;;4999179;28;20050;-72
2023/03/22 11:18:53;;;;;;;12.63;7.80;;;15.50;99.90;;;;;;5029713;28;20091;-72
2023/03/22 11:21:32;;;;;;;10.85;8.20;;;15.40;99.90;;;;;;5067410;23;20070;-72
2023/03/22 11:24:04;;;;;;;11.70;7.20;;;15.30;99.90;;;;;;5037101;28;20041;-71
2023/03/22 11:26:36;;;;;;;12.77;8.15;;;15.30;99.90;;;;;;5051406;28;20039;-74
2023/03/22 11:29:18;;;;;;;15.23;7.65;;;15.40;99.90;;;;;;5066052;28;20116;-75
2023/03/22 11:31:56;;;;;;;13.48;7.70;;;15.40;99.90;;;;;;5069092;28;20193;-72
2023/03/22 11:34:28;;;;;;;10.80;6.97;;;15.40;99.90;;;;;;5066412;28;20033;-74
2023/03/22 11:36:59;;;;;;;10.65;6.80;;;15.60;99.30;;;;;;5075150;28;20412;-76
2023/03/22 11:39:28;;;;;;;10.40;7.20;;;15.80;98.70;;;;;;5055507;28;20052;-76
2023/03/22 11:42:05;;;;;;;9.95;6.97;;;16.20;97.80;;;;;;5072923;28;20041;-76
2023/03/22 11:44:36;;;;;;;9.27;6.60;;;16.60;96.60;;;;;;5067521;28;20045;-70
2023/03/22 11:47:07;;;;;;;9.88;6.55;;;16.80;96.80;;;;;;5066568;28;20048;-75
2023/03/22 11:49:48;;;;;;;;;;;17.40;94.60;;;;;;5066680;28;20044;-77
2023/03/22 11:52:18;;;;;;;10.18;6.40;;;17.60;93.50;;;;;;5073924;28;19928;-77
2023/03/22 11:54:47;;;;;;;8.85;6.38;;;17.40;92.70;;;;;;5043545;28;20135;-73
2023/03/22 11:57:26;;;;;;;8.30;5.65;;;17.00;92.40;;;;;;5037563;28;20057;-75
2023/03/22 12:00:06;;;;;;;7.60;5.70;;;16.70;92.20;;;;;;5047653;28;20041;-70
2023/03/22 12:02:37;;;;;;;;;;;16.80;93.00;;;;;;5061796;28;20050;-72
2023/03/22 12:05:08;;;;;;;;;;;16.70;92.00;;;;;;5074195;28;20019;-74
2023/03/22 12:07:36;;;;;;;8.70;5.22;;;16.70;91.90;;;;;;5056212;28;20331;-72
2023/03/22 12:10:14;;;;;;;8.35;5.68;;;17.00;91.50;;;;;;5062356;28;20131;-74
2023/03/22 12:13:17;;;;;;;8.82;5.38;;;18.00;91.10;;;;;;5064795;28;20499;-71
2023/03/22 12:15:51;;;;;;;10.07;5.50;;;18.50;86.60;;;;;;5040813;28;20025;-70
2023/03/22 12:18:44;;;;;;;10.00;6.03;;;18.30;84.80;;;;;;5033410;28;20041;-69
2023/03/22 12:21:11;;;;;;;9.52;6.00;;;18.40;84.60;;;;;;5068155;28;20048;-72
2023/03/22 12:23:38;;;;;;;8.48;4.75;;;19.90;81.40;;;;;;5057220;28;20051;-70
2023/03/22 12:26:29;;;;;;;8.18;4.68;;;19.30;76.30;;;;;;5074917;23;20053;-72
2023/03/22 12:29:17;;;;;;;8.20;5.05;;;18.00;80.40;;;;;;5017879;28;20041;-70
2023/03/22 12:32:05;;;;;;;7.95;4.68;;;17.20;83.10;;;;;;5034169;28;20473;-70
2023/03/22 12:34:43;;;;;;;8.18;4.53;;;17.00;83.70;;;;;;5016257;28;20370;-71
2023/03/22 12:37:18;;;;;;;6.65;4.60;;;17.00;84.40;;;;;;5016711;28;20067;-72
2023/03/22 12:39:50;;;;;;;8.45;4.80;;;17.10;85.30;;;;;;5024153;28;20041;-71
2023/03/22 12:42:25;;;;;;;6.80;4.75;;;17.10;84.90;;;;;;5036362;28;20525;-71
2023/03/22 12:45:00;;;;;;;8.15;5.18;;;17.00;84.70;;;;;;5041801;28;20364;-73
2023/03/22 12:47:41;;;;;;;6.88;4.85;;;17.20;86.20;;;;;;5036173;28;20044;-71
2023/03/22 12:50:23;;;;;;;6.60;4.60;;;17.10;85.70;;;;;;5021003;28;20033;-72
2023/03/22 12:52:53;;;;;;;7.32;4.72;;;17.50;83.80;;;;;;5026379;28;20057;-72
2023/03/22 12:55:34;;;;;;;7.47;4.40;;;19.40;77.90;;;;;;5031482;28;20116;-72
2023/03/22 12:58:05;;;;;;;6.25;4.15;;;20.70;71.00;;;;;;5023160;28;20461;-72
2023/03/22 13:00:32;;;;;;;6.85;4.70;;;19.10;76.40;;;;;;5036498;28;20401;-72
2023/03/22 13:03:21;;;;;;;6.97;4.45;;;18.30;78.10;;;;;;5025629;28;20500;-70
2023/03/22 13:06:00;;;;;;;5.10;3.53;;;17.50;76.80;;;;;;5032668;28;20432;-72
2023/03/22 13:09:00;;;;;;;6.78;4.53;;;18.70;75.50;;;;;;5033004;28;20067;-72